Time;durP1;ratioP1;P1;durP2;ratioP2;P2;SDS_P1;SDS_P2;PMS_P1;PMS_P2;Temp;Humidity;BMP_temperature;BMP_pressure;BME280_temperature;BME280_humidity;BME280_pressure;Samples;Min_cycle;Max_cycle;Signal;HPM_P1;HPM_P2
2022/08/02 00:01:40;;;;;;;8.02;5.68;;;19.30;65.10;;;;;;5073111;28;20470;-78
2022/08/02 00:04:06;;;;;;;11.23;6.17;;;19.30;65.40;;;;;;5072862;28;20366;-79
2022/08/02 00:06:33;;;;;;;8.98;5.63;;;19.30;65.20;;;;;;5072230;28;20324;-80
2022/08/02 00:08:58;;;;;;;13.32;5.68;;;19.30;65.40;;;;;;5072212;28;20047;-85
2022/08/02 00:11:25;;;;;;;14.52;5.90;;;19.20;65.60;;;;;;5072334;28;20036;-79
2022/08/02 00:13:51;;;;;;;9.55;6.18;;;19.30;65.70;;;;;;5072969;28;20025;-81
2022/08/02 00:16:17;;;;;;;10.57;6.45;;;19.30;65.40;;;;;;5072829;28;20024;-81
2022/08/02 00:18:43;;;;;;;13.00;6.72;;;19.20;65.20;;;;;;5055699;28;20043;-81
2022/08/02 00:21:09;;;;;;;14.00;6.20;;;19.20;65.50;;;;;;5054995;28;20549;-83
2022/08/02 00:23:35;;;;;;;14.93;6.22;;;19.20;65.40;;;;;;5072726;28;20428;-82
2022/08/02 00:26:01;;;;;;;8.20;5.30;;;19.20;65.40;;;;;;5072805;28;20386;-80
2022/08/02 00:28:27;;;;;;;8.80;5.95;;;19.20;65.20;;;;;;5072622;28;20032;-83
2022/08/02 00:30:53;;;;;;;8.75;5.93;;;19.20;65.30;;;;;;5065596;28;20031;-88
2022/08/02 00:33:20;;;;;;;12.57;5.53;;;19.20;65.30;;;;;;5070475;28;20068;-84
2022/08/02 00:35:46;;;;;;;15.63;5.55;;;19.10;65.40;;;;;;5071799;28;20063;-84
2022/08/02 00:38:13;;;;;;;8.25;5.60;;;19.10;65.60;;;;;;5072544;28;20036;-84
2022/08/02 00:40:40;;;;;;;14.63;6.20;;;19.10;65.60;;;;;;5073088;28;20376;-85
2022/08/02 00:43:09;;;;;;;15.70;6.88;;;19.10;65.80;;;;;;5055134;28;20043;-87
2022/08/02 00:45:37;;;;;;;12.68;6.55;;;19.10;66.00;;;;;;5054956;28;20021;-85
2022/08/02 00:48:04;;;;;;;14.85;6.57;;;19.10;66.10;;;;;;5054602;28;20044;-85
2022/08/02 00:50:30;;;;;;;8.85;5.85;;;19.00;66.60;;;;;;5074024;28;20020;-86
2022/08/02 00:52:58;;;;;;;12.85;6.80;;;19.00;66.70;;;;;;5073263;28;20059;-86
2022/08/02 00:55:25;;;;;;;16.33;6.40;;;19.00;66.60;;;;;;5072463;28;20024;-85
2022/08/02 00:57:51;;;;;;;15.35;5.95;;;19.00;66.80;;;;;;5072091;28;20070;-85
2022/08/02 01:00:17;;;;;;;14.55;6.47;;;19.00;66.80;;;;;;5072430;28;20115;-85
2022/08/02 01:02:43;;;;;;;12.65;6.07;;;18.90;67.10;;;;;;5072839;28;20434;-86
2022/08/02 01:05:10;;;;;;;12.10;6.32;;;18.90;67.30;;;;;;5074435;28;20359;-84
2022/08/02 01:07:36;;;;;;;11.05;5.82;;;18.90;67.70;;;;;;5074042;28;20035;-84
2022/08/02 01:10:04;;;;;;;12.02;6.90;;;18.80;67.50;;;;;;5072953;28;20046;-85
2022/08/02 01:12:32;;;;;;;10.90;6.00;;;18.80;67.60;;;;;;5072587;28;20012;-85
2022/08/02 01:15:01;;;;;;;11.82;6.40;;;18.80;68.10;;;;;;5073488;28;20021;-84
2022/08/02 01:17:40;;;;;;;16.50;6.10;;;18.80;68.10;;;;;;5073315;28;20070;-86
2022/08/02 01:20:34;;;;;;;10.95;6.25;;;18.70;68.10;;;;;;5070396;28;20695;-87
2022/08/02 01:23:19;;;;;;;17.52;7.07;;;18.70;68.20;;;;;;5083480;28;20051;-86
2022/08/02 01:26:12;;;;;;;12.23;6.63;;;18.70;68.60;;;;;;5061642;28;20032;-87
2022/08/02 01:28:57;;;;;;;17.23;6.28;;;18.70;68.80;;;;;;5077612;28;20420;-84
2022/08/02 01:31:28;;;;;;;8.85;6.45;;;18.60;68.80;;;;;;5075982;28;20076;-86
2022/08/02 01:33:58;;;;;;;12.85;6.72;;;18.60;68.90;;;;;;5075552;28;20167;-85
2022/08/02 01:36:30;;;;;;;16.05;6.88;;;18.60;69.10;;;;;;5076441;28;20058;-85
2022/08/02 01:38:58;;;;;;;16.10;7.28;;;18.50;69.40;;;;;;5073507;28;20055;-85
2022/08/02 01:41:27;;;;;;;18.27;6.30;;;18.50;69.50;;;;;;5073178;28;20012;-85
2022/08/02 01:43:58;;;;;;;13.30;6.18;;;18.50;69.80;;;;;;5073826;28;20032;-85
2022/08/02 01:46:26;;;;;;;10.88;6.22;;;18.50;69.90;;;;;;5055227;28;20029;-86
2022/08/02 01:48:55;;;;;;;13.18;6.72;;;18.50;69.70;;;;;;5076698;28;20040;-86
2022/08/02 01:54:09;;;;;;;15.70;6.00;;;18.50;69.90;;;;;;5086229;28;20106;-87
2022/08/02 01:56:36;;;;;;;12.98;6.43;;;18.50;70.00;;;;;;5085025;28;20413;-85
2022/08/02 01:59:04;;;;;;;10.57;6.13;;;18.50;70.10;;;;;;5080421;28;20161;-86
2022/08/02 02:01:33;;;;;;;10.75;6.28;;;18.50;70.00;;;;;;5078355;28;20257;-86
2022/08/02 02:04:01;;;;;;;10.77;5.50;;;18.60;70.00;;;;;;5078506;28;20013;-85
2022/08/02 02:06:28;;;;;;;12.25;6.28;;;18.60;70.00;;;;;;5077258;28;20107;-86
2022/08/02 02:08:55;;;;;;;12.55;5.88;;;18.60;70.40;;;;;;5076386;28;20108;-86
2022/08/02 02:11:21;;;;;;;10.98;6.28;;;18.70;70.60;;;;;;5076275;28;20025;-87
2022/08/02 02:13:49;;;;;;;15.30;5.88;;;18.70;70.30;;;;;;5065096;28;20112;-86
2022/08/02 02:16:15;;;;;;;13.05;4.85;;;18.70;70.00;;;;;;5073882;28;20025;-87
2022/08/02 02:18:43;;;;;;;13.80;6.30;;;18.70;69.70;;;;;;5076662;28;20036;-86
2022/08/02 02:21:10;;;;;;;10.93;5.95;;;18.80;69.70;;;;;;5076764;28;20040;-86
2022/08/02 02:23:39;;;;;;;;;;;18.80;69.70;;;;;;5059818;28;20817;-86
2022/08/02 02:26:06;;;;;;;10.63;5.95;;;18.90;69.10;;;;;;5076992;28;19908;-86
2022/08/02 02:28:36;;;;;;;10.23;5.65;;;18.80;69.70;;;;;;5078523;28;20035;-86
2022/08/02 02:31:09;;;;;;;14.48;5.88;;;18.80;69.60;;;;;;5077288;28;20036;-86
2022/08/02 02:33:43;;;;;;;9.25;5.70;;;18.90;69.70;;;;;;5075509;28;20365;-87
2022/08/02 02:36:10;;;;;;;10.77;5.63;;;19.00;69.40;;;;;;5075362;28;20025;-87
2022/08/02 02:38:37;;;;;;;;;;;19.00;70.00;;;;;;5075662;28;20028;-86
2022/08/02 02:41:05;;;;;;;8.68;5.80;;;19.00;68.80;;;;;;5075408;28;19952;-87
2022/08/02 02:43:33;;;;;;;12.65;6.25;;;19.00;69.20;;;;;;5075390;28;20029;-86
2022/08/02 02:46:02;;;;;;;12.77;6.00;;;19.10;69.20;;;;;;5075317;28;20021;-86
2022/08/02 02:48:28;;;;;;;13.75;5.88;;;19.10;68.90;;;;;;5075158;28;20032;-87
2022/08/02 02:50:55;;;;;;;13.52;6.35;;;19.20;69.10;;;;;;5075250;28;20021;-87
2022/08/02 02:53:21;;;;;;;14.32;6.68;;;19.30;68.40;;;;;;5057527;28;20109;-88
2022/08/02 02:55:48;;;;;;;11.20;6.75;;;19.40;68.00;;;;;;5058225;28;20055;-86
2022/08/02 02:58:14;;;;;;;9.45;5.80;;;19.40;68.50;;;;;;5074108;28;20086;-85
2022/08/02 03:03:26;;;;;;;14.50;7.20;;;19.60;67.70;;;;;;5075528;28;20035;-86
2022/08/02 03:05:52;;;;;;;9.37;6.43;;;19.70;67.70;;;;;;5077697;28;20089;-85
2022/08/02 03:08:18;;;;;;;14.35;5.97;;;19.70;67.50;;;;;;5074922;28;20012;-86
2022/08/02 03:10:44;;;;;;;9.05;5.60;;;19.80;67.20;;;;;;5076495;28;20424;-87
2022/08/02 03:13:11;;;;;;;12.48;6.35;;;19.90;67.00;;;;;;5080176;28;20016;-84
2022/08/02 03:15:38;;;;;;;11.02;6.03;;;19.90;66.50;;;;;;5059175;28;20025;-85
2022/08/02 03:18:06;;;;;;;;;;;19.90;66.40;;;;;;5058263;28;20477;-87
2022/08/02 03:20:32;;;;;;;8.93;5.88;;;20.00;66.30;;;;;;5075115;28;19948;-85
2022/08/02 03:22:58;;;;;;;13.63;5.68;;;20.00;66.30;;;;;;5075107;28;20456;-85
2022/08/02 03:25:24;;;;;;;8.63;5.70;;;20.10;66.00;;;;;;5069313;28;20425;-84
2022/08/02 03:27:49;;;;;;;14.32;5.43;;;20.00;65.90;;;;;;5095152;28;20056;-85
2022/08/02 03:30:15;;;;;;;10.15;5.53;;;20.00;66.30;;;;;;5076490;28;20033;-87
2022/08/02 03:32:44;;;;;;;10.48;5.47;;;20.10;66.10;;;;;;5098336;28;20021;-85
2022/08/02 03:35:13;;;;;;;11.90;6.30;;;20.20;65.90;;;;;;5099058;28;20005;-87
2022/08/02 03:37:40;;;;;;;13.40;6.28;;;20.40;65.80;;;;;;5098081;28;20017;-85
2022/08/02 03:40:06;;;;;;;;;;;20.40;65.40;;;;;;5076564;28;20043;-87
2022/08/02 03:42:42;;;;;;;12.90;6.65;;;20.50;65.20;;;;;;5057640;28;19909;-89
2022/08/02 03:45:11;;;;;;;12.93;6.63;;;20.50;65.30;;;;;;5074624;28;20036;-86
2022/08/02 03:47:38;;;;;;;14.30;6.30;;;20.60;65.20;;;;;;5074884;28;20029;-87
2022/08/02 03:50:11;;;;;;;11.20;6.53;;;20.70;65.00;;;;;;5075203;28;20029;-88
2022/08/02 03:52:40;;;;;;;9.95;6.20;;;20.80;65.00;;;;;;5075710;28;20031;-88
2022/08/02 03:55:07;;;;;;;10.05;6.32;;;20.80;64.50;;;;;;5076243;28;20013;-87
2022/08/02 03:57:35;;;;;;;9.75;5.70;;;21.00;64.40;;;;;;5059527;28;20466;-88
2022/08/02 04:00:01;;;;;;;11.82;6.85;;;21.10;64.10;;;;;;5075303;28;20044;-87
2022/08/02 04:02:27;;;;;;;9.55;6.05;;;21.30;63.60;;;;;;5074679;28;20150;-89
2022/08/02 04:04:53;;;;;;;14.35;6.18;;;21.50;63.20;;;;;;5074604;28;20021;-87
2022/08/02 04:07:18;;;;;;;19.63;6.72;;;21.60;63.00;;;;;;5074536;28;20162;-87
2022/08/02 04:09:44;;;;;;;11.70;5.97;;;21.80;62.30;;;;;;5056537;28;20051;-88
2022/08/02 04:12:10;;;;;;;9.57;5.70;;;21.90;61.70;;;;;;5074818;28;20024;-88
2022/08/02 04:14:37;;;;;;;10.07;5.80;;;22.10;61.80;;;;;;5087238;28;20139;-88
2022/08/02 04:17:08;;;;;;;11.27;6.93;;;22.20;60.80;;;;;;5077800;28;20129;-86
2022/08/02 04:19:45;;;;;;;11.40;5.95;;;22.30;61.20;;;;;;5082186;28;20036;-87
2022/08/02 04:22:22;;;;;;;12.57;6.18;;;22.30;60.60;;;;;;5074125;28;20115;-86
2022/08/02 04:24:53;;;;;;;10.07;6.40;;;22.50;60.40;;;;;;5088746;28;20057;-84
2022/08/02 04:27:21;;;;;;;8.98;6.38;;;22.40;60.00;;;;;;5073716;28;20032;-85
2022/08/02 04:29:48;;;;;;;16.52;6.75;;;22.50;60.60;;;;;;5073399;28;20088;-85
2022/08/02 04:32:15;;;;;;;8.63;6.25;;;22.60;60.00;;;;;;5074969;28;20394;-85
2022/08/02 04:34:44;;;;;;;12.68;6.07;;;22.80;59.80;;;;;;5055899;28;20116;-85
2022/08/02 04:37:12;;;;;;;14.90;6.25;;;22.90;59.50;;;;;;5073522;28;20416;-86
2022/08/02 04:39:40;;;;;;;11.68;6.32;;;23.00;59.50;;;;;;5073153;28;20047;-85
2022/08/02 04:42:06;;;;;;;11.77;6.05;;;23.20;58.70;;;;;;5088508;28;20361;-84
2022/08/02 04:44:32;;;;;;;22.30;7.07;;;23.20;58.70;;;;;;5072620;28;20058;-83
2022/08/02 04:47:01;;;;;;;13.95;6.32;;;23.50;58.80;;;;;;5056976;28;20021;-82
2022/08/02 04:49:28;;;;;;;15.55;6.13;;;23.90;58.10;;;;;;5076234;28;20052;-88
2022/08/02 04:51:54;;;;;;;13.55;6.90;;;24.30;56.60;;;;;;5085460;28;20024;-87
2022/08/02 04:54:19;;;;;;;9.93;5.50;;;24.50;56.50;;;;;;5073417;28;20028;-86
2022/08/02 04:56:45;;;;;;;11.82;5.60;;;24.70;55.60;;;;;;5057541;28;20430;-85
2022/08/02 04:59:11;;;;;;;13.10;5.00;;;24.90;55.80;;;;;;5073194;28;20033;-86
2022/08/02 05:01:41;;;;;;;8.15;5.18;;;24.80;54.40;;;;;;5073387;28;20025;-86
2022/08/02 05:04:16;;;;;;;13.45;5.07;;;24.60;54.40;;;;;;5072188;28;20027;-82
2022/08/02 05:06:41;;;;;;;10.32;4.63;;;24.90;54.20;;;;;;5090476;28;20637;-84
2022/08/02 05:09:07;;;;;;;8.02;4.53;;;25.60;53.50;;;;;;5053809;28;20021;-85
2022/08/02 05:11:33;;;;;;;10.93;4.75;;;26.60;51.70;;;;;;5073440;28;20043;-84
2022/08/02 05:13:59;;;;;;;12.38;4.57;;;27.30;50.60;;;;;;5072101;28;20119;-85
2022/08/02 05:16:25;;;;;;;9.63;4.80;;;28.20;49.00;;;;;;5060711;28;20024;-86
2022/08/02 05:18:51;;;;;;;10.60;4.35;;;28.80;48.10;;;;;;5074719;28;20069;-85
2022/08/02 05:21:17;;;;;;;9.55;5.07;;;28.90;46.40;;;;;;5056374;28;20028;-87
2022/08/02 05:23:43;;;;;;;8.77;4.68;;;28.20;47.40;;;;;;5074454;28;20137;-86
2022/08/02 05:26:09;;;;;;;8.32;4.13;;;28.40;47.60;;;;;;5073917;28;20105;-87
2022/08/02 05:28:35;;;;;;;9.35;4.10;;;28.70;47.20;;;;;;5073034;28;20116;-87
2022/08/02 05:31:01;;;;;;;6.95;3.95;;;28.60;46.70;;;;;;5073199;28;20066;-86
2022/08/02 05:33:26;;;;;;;9.02;4.25;;;27.80;48.20;;;;;;5072722;28;20031;-86
2022/08/02 05:35:52;;;;;;;13.10;4.78;;;27.40;49.50;;;;;;5072526;28;20435;-86
2022/08/02 05:38:18;;;;;;;9.90;4.45;;;27.20;49.20;;;;;;5072739;28;20072;-86
2022/08/02 05:40:44;;;;;;;13.85;5.70;;;27.20;49.00;;;;;;5072602;28;20024;-85
2022/08/02 05:43:13;;;;;;;6.93;4.72;;;27.20;49.80;;;;;;5072810;28;20086;-87
2022/08/02 05:45:39;;;;;;;14.55;5.32;;;27.40;49.70;;;;;;5073640;28;20424;-88
2022/08/02 05:48:06;;;;;;;11.52;5.55;;;27.50;49.60;;;;;;5073703;28;20082;-87
2022/08/02 05:50:36;;;;;;;11.00;5.30;;;28.10;49.30;;;;;;5073616;28;20120;-86
2022/08/02 05:53:23;;;;;;;14.80;5.80;;;28.40;48.40;;;;;;5074413;28;20265;-87
2022/08/02 05:56:17;;;;;;;18.58;5.72;;;28.60;48.70;;;;;;5055049;28;20053;-87
2022/08/02 05:59:03;;;;;;;11.40;5.03;;;28.30;48.40;;;;;;5067174;28;20044;-85
2022/08/02 06:01:38;;;;;;;7.60;5.43;;;28.90;47.80;;;;;;5074060;28;20025;-86
2022/08/02 06:04:09;;;;;;;16.77;9.13;;;29.40;47.20;;;;;;5055289;28;20017;-88
2022/08/02 06:06:42;;;;;;;11.65;4.53;;;29.40;46.70;;;;;;5056962;28;20130;-85
2022/08/02 06:09:13;;;;;;;14.50;4.45;;;30.00;46.30;;;;;;5073987;28;20381;-85
2022/08/02 06:11:44;;;;;;;14.77;5.40;;;30.40;44.90;;;;;;5082735;28;20017;-85
2022/08/02 06:14:11;;;;;;;9.90;5.03;;;30.20;45.30;;;;;;5075340;28;20021;-86
2022/08/02 06:16:38;;;;;;;15.07;5.35;;;30.50;45.20;;;;;;5072836;28;20025;-88
2022/08/02 06:19:05;;;;;;;16.25;5.72;;;30.80;44.80;;;;;;5072428;28;20093;-87
2022/08/02 06:21:31;;;;;;;12.88;4.93;;;;;;;;;;5054112;28;20107;-87
2022/08/02 06:23:58;;;;;;;10.95;5.13;;;;;;;;;;5071776;28;20139;-90
2022/08/02 06:26:25;;;;;;;14.25;5.13;;;;;;;;;;5074361;28;20089;-88
2022/08/02 06:28:55;;;;;;;11.50;4.82;;;;;;;;;;5073634;28;20016;-87
2022/08/02 06:31:21;;;;;;;12.50;5.07;;;31.10;44.50;;;;;;5072178;28;20545;-87
2022/08/02 06:33:47;;;;;;;16.90;5.55;;;34.80;40.00;;;;;;5056281;28;20489;-87
2022/08/02 06:36:57;;;;;;;19.57;5.73;;;35.00;39.30;;;;;;5077359;28;20055;-86
2022/08/02 06:39:51;;;;;;;18.23;5.57;;;35.00;39.00;;;;;;5039282;28;20054;-86
2022/08/02 06:42:24;;;;;;;18.00;5.28;;;36.30;38.60;;;;;;5028131;28;20450;-85
2022/08/02 06:44:50;;;;;;;12.18;5.20;;;36.60;37.20;;;;;;5034763;28;20481;-87
2022/08/02 06:47:16;;;;;;;16.43;6.43;;;36.10;37.20;;;;;;5034502;28;20029;-89
2022/08/02 06:49:42;;;;;;;15.13;5.27;;;35.50;38.00;;;;;;5013907;28;20180;-85
2022/08/02 06:52:07;;;;;;;11.30;4.97;;;34.90;38.30;;;;;;5042496;28;20077;-82
2022/08/02 06:54:34;;;;;;;15.13;5.03;;;34.50;39.00;;;;;;5035325;28;20368;-86
2022/08/02 06:57:00;;;;;;;17.40;5.25;;;35.00;38.50;;;;;;5017032;28;20034;-87
2022/08/02 06:59:26;;;;;;;12.23;5.05;;;36.20;37.60;;;;;;5034456;28;20056;-86
2022/08/02 07:01:53;;;;;;;10.90;4.35;;;;;;;;;;5035662;28;20112;-84
2022/08/02 07:04:19;;;;;;;;;;;;;;;;;;5032220;28;20049;-85
2022/08/02 07:06:45;;;;;;;7.10;4.07;;;;;;;;;;5032349;28;20015;-85
2022/08/02 07:09:11;;;;;;;14.90;4.40;;;;;;;;;;5035180;28;20021;-85
2022/08/02 07:11:40;;;;;;;7.90;3.90;;;41.70;30.60;;;;;;5075059;28;20106;-83
2022/08/02 07:14:06;;;;;;;4.28;2.85;;;41.70;31.90;;;;;;5057055;28;20028;-86
2022/08/02 07:16:32;;;;;;;7.85;3.10;;;41.20;30.70;;;;;;5076766;28;20036;-85
2022/08/02 07:18:58;;;;;;;11.85;3.60;;;40.80;31.40;;;;;;5075049;28;20088;-86
2022/08/02 07:21:24;;;;;;;8.52;2.95;;;41.30;31.30;;;;;;5056493;28;20462;-86
2022/08/02 07:23:50;;;;;;;;;;;41.20;30.80;;;;;;5074111;28;20398;-85
2022/08/02 07:26:16;;;;;;;14.18;4.10;;;41.00;32.10;;;;;;5073842;28;19912;-86
2022/08/02 07:28:42;;;;;;;12.75;4.35;;;;;;;;;;5073608;28;20025;-85
2022/08/02 07:31:15;;;;;;;;;;;42.20;30.90;;;;;;5056007;28;20524;-86
2022/08/02 07:33:41;;;;;;;6.82;3.60;;;42.90;31.70;;;;;;5073842;28;19912;-84
2022/08/02 07:36:07;;;;;;;;;;;43.60;29.90;;;;;;5056631;28;20385;-85
2022/08/02 07:38:36;;;;;;;9.38;4.05;;;44.00;30.60;;;;;;5073836;28;19993;-84
2022/08/02 07:41:02;;;;;;;11.43;3.42;;;44.30;29.40;;;;;;5073959;28;20046;-84
2022/08/02 07:43:28;;;;;;;;;;;43.60;29.30;;;;;;5073749;28;20031;-85
2022/08/02 07:45:54;;;;;;;8.02;3.08;;;42.70;30.00;;;;;;5089247;28;19905;-84
2022/08/02 07:48:19;;;;;;;8.57;3.22;;;41.00;30.20;;;;;;5073661;28;20021;-86
2022/08/02 07:50:47;;;;;;;10.73;3.88;;;38.60;31.90;;;;;;5055777;28;20029;-85
2022/08/02 07:53:12;;;;;;;6.90;2.50;;;37.90;33.50;;;;;;5073629;28;20497;-83
2022/08/02 07:55:38;;;;;;;10.73;3.95;;;38.80;32.50;;;;;;5073210;28;20095;-84
2022/08/02 07:58:04;;;;;;;;;;;39.60;31.90;;;;;;5056193;28;20033;-85
2022/08/02 08:00:30;;;;;;;6.63;3.35;;;40.30;32.10;;;;;;5073459;28;19912;-85
2022/08/02 08:02:56;;;;;;;6.35;2.60;;;41.30;30.80;;;;;;5058306;28;20032;-84
2022/08/02 08:05:22;;;;;;;;;;;42.40;30.20;;;;;;5080512;28;20050;-85
2022/08/02 08:07:48;;;;;;;3.22;2.10;;;43.60;31.10;;;;;;5075373;28;19904;-84
2022/08/02 08:10:14;;;;;;;5.03;2.22;;;44.20;29.00;;;;;;5073368;28;20024;-84
2022/08/02 08:12:40;;;;;;;;;;;;;;;;;;5073366;28;20056;-84
2022/08/02 08:15:06;;;;;;;7.57;2.38;;;;;;;;;;5074380;28;19915;-85
2022/08/02 08:17:33;;;;;;;6.18;1.90;;;;;;;;;;5074965;28;20033;-84
2022/08/02 08:20:04;;;;;;;3.53;1.63;;;;;;;;;;5061033;28;20098;-87
2022/08/02 08:22:30;;;;;;;4.05;1.92;;;;;;;;;;5074886;28;20065;-84
2022/08/02 08:24:56;;;;;;;1.95;1.63;;;;;;;;;;5080254;28;20085;-86
2022/08/02 08:27:22;;;;;;;3.83;1.65;;;44.90;28.50;;;;;;5086418;28;20025;-85
2022/08/02 08:29:51;;;;;;;4.45;2.05;;;45.50;27.70;;;;;;5078114;28;20096;-85
2022/08/02 08:32:18;;;;;;;4.28;1.13;;;;;;;;;;5072738;28;20032;-85
2022/08/02 08:34:44;;;;;;;2.55;1.67;;;46.20;26.80;;;;;;5072770;28;20024;-84
2022/08/02 08:37:10;;;;;;;2.17;1.42;;;46.30;26.80;;;;;;5075835;28;20055;-85
2022/08/02 08:39:36;;;;;;;6.47;2.10;;;45.60;26.10;;;;;;5075076;28;20020;-84
2022/08/02 08:42:04;;;;;;;;;;;43.30;28.80;;;;;;5073168;28;20051;-85
2022/08/02 08:44:32;;;;;;;3.88;1.80;;;42.00;28.70;;;;;;5072030;28;19957;-84
2022/08/02 08:46:59;;;;;;;2.55;2.00;;;41.30;29.20;;;;;;5072569;28;20147;-85
2022/08/02 08:49:31;;;;;;;8.00;2.47;;;41.80;29.40;;;;;;5071974;28;20048;-84
2022/08/02 08:52:02;;;;;;;2.40;1.52;;;41.90;29.60;;;;;;5072086;28;20036;-84
2022/08/02 08:54:30;;;;;;;5.40;2.35;;;42.00;29.10;;;;;;5054218;28;20377;-84
2022/08/02 08:56:57;;;;;;;3.53;1.90;;;40.70;29.90;;;;;;5074556;28;20085;-85
2022/08/02 08:59:23;;;;;;;5.85;2.05;;;41.50;30.00;;;;;;5072295;28;20024;-84
2022/08/02 09:01:50;;;;;;;2.92;2.00;;;42.80;29.00;;;;;;5072468;28;20039;-85
2022/08/02 09:04:17;;;;;;;7.22;2.25;;;42.80;28.70;;;;;;5073317;28;20469;-86
2022/08/02 09:06:43;;;;;;;4.85;3.22;;;40.20;29.40;;;;;;5073536;28;20017;-86
2022/08/02 09:09:09;;;;;;;5.90;3.08;;;;;;;;;;5069757;28;20021;-85
2022/08/02 09:11:35;;;;;;;7.82;2.70;;;37.40;31.50;;;;;;5062553;28;20025;-85
2022/08/02 09:14:02;;;;;;;6.82;2.90;;;37.50;33.80;;;;;;5075748;28;20032;-85
2022/08/02 09:16:39;;;;;;;7.13;2.70;;;38.20;31.20;;;;;;5072137;28;20055;-84
2022/08/02 09:19:22;;;;;;;6.70;2.50;;;37.60;31.30;;;;;;5070067;28;20149;-85
2022/08/02 09:21:49;;;;;;;6.38;2.28;;;37.60;32.00;;;;;;5093473;28;20048;-84
2022/08/02 09:24:16;;;;;;;3.47;1.90;;;;;;;;;;5076468;28;20091;-84
2022/08/02 09:26:43;;;;;;;11.30;2.13;;;39.00;31.50;;;;;;5058083;28;20028;-88
2022/08/02 09:29:08;;;;;;;3.67;2.10;;;38.10;30.40;;;;;;5077576;28;20031;-84
2022/08/02 09:31:34;;;;;;;5.25;1.95;;;38.00;31.20;;;;;;5074252;28;20346;-83
2022/08/02 09:34:00;;;;;;;5.05;2.08;;;39.20;31.20;;;;;;5059119;28;20020;-84
2022/08/02 09:36:37;;;;;;;3.70;1.67;;;40.30;29.90;;;;;;5080016;28;20121;-85
2022/08/02 09:39:05;;;;;;;6.78;1.98;;;41.00;29.20;;;;;;5078310;28;20053;-83
2022/08/02 09:41:33;;;;;;;8.23;2.65;;;39.80;29.50;;;;;;5082583;28;20028;-84
2022/08/02 09:44:00;;;;;;;7.15;2.53;;;39.90;30.20;;;;;;5081551;28;20028;-84
2022/08/02 09:46:29;;;;;;;4.93;1.88;;;41.20;29.50;;;;;;5077075;28;20017;-84
2022/08/02 09:48:56;;;;;;;5.05;2.00;;;42.30;28.50;;;;;;5054158;28;20351;-86
2022/08/02 09:51:24;;;;;;;3.03;1.95;;;42.40;28.10;;;;;;5072785;28;20020;-84
2022/08/02 09:53:52;;;;;;;3.80;1.60;;;41.20;28.20;;;;;;5072274;28;20036;-85
2022/08/02 09:56:20;;;;;;;3.55;1.50;;;40.30;29.10;;;;;;5071862;28;20017;-85
2022/08/02 09:58:46;;;;;;;3.30;1.80;;;39.70;29.30;;;;;;5071212;28;20068;-85
2022/08/02 10:01:12;;;;;;;2.28;1.52;;;;;;;;;;5071516;28;20021;-84
2022/08/02 10:03:55;;;;;;;5.75;2.20;;;39.00;29.60;;;;;;5055954;28;20039;-85
2022/08/02 10:06:22;;;;;;;4.20;2.22;;;34.30;33.60;;;;;;5076189;28;20025;-86
2022/08/02 10:08:48;;;;;;;3.80;2.47;;;32.60;35.30;;;;;;5075828;28;20035;-84
2022/08/02 10:11:14;;;;;;;3.67;2.13;;;33.00;35.60;;;;;;5058235;28;20069;-85
2022/08/02 10:13:41;;;;;;;5.45;1.90;;;34.60;34.20;;;;;;5075788;28;20027;-85
2022/08/02 10:16:07;;;;;;;8.35;2.10;;;34.70;33.40;;;;;;5070318;28;20024;-85
2022/08/02 10:18:34;;;;;;;1.63;1.52;;;34.80;33.20;;;;;;5075145;28;20419;-86
2022/08/02 10:21:01;;;;;;;2.28;1.77;;;34.60;33.20;;;;;;5057312;28;20125;-84
2022/08/02 10:23:32;;;;;;;4.13;2.30;;;33.80;33.60;;;;;;5075150;28;20052;-86
2022/08/02 10:26:02;;;;;;;3.38;2.03;;;32.30;35.10;;;;;;5075200;28;20048;-86
2022/08/02 10:28:31;;;;;;;7.15;3.08;;;31.60;36.30;;;;;;5057553;28;20489;-89
2022/08/02 10:31:01;;;;;;;4.22;2.20;;;31.30;37.30;;;;;;5075201;28;20036;-86
2022/08/02 10:33:29;;;;;;;3.83;2.40;;;;;;;;;;5075393;28;20107;-86
2022/08/02 10:35:59;;;;;;;4.60;2.33;;;;;;;;;;5057535;28;20396;-85
2022/08/02 10:38:25;;;;;;;4.22;2.95;;;31.30;37.00;;;;;;5074865;28;20040;-87
2022/08/02 10:40:55;;;;;;;2.75;2.40;;;;;;;;;;5056968;28;20047;-87
2022/08/02 10:43:36;;;;;;;4.75;2.85;;;;;;;;;;5074828;28;20059;-85
2022/08/02 10:46:30;;;;;;;2.67;2.38;;;30.70;38.00;;;;;;5056927;28;20028;-85
2022/08/02 10:49:16;;;;;;;3.92;2.92;;;29.50;39.60;;;;;;5075293;28;20020;-84
2022/08/02 10:51:54;;;;;;;7.68;3.03;;;;;;;;;;5078964;28;20020;-85
2022/08/02 10:54:21;;;;;;;7.05;3.60;;;;;;;;;;5080240;28;20030;-85
2022/08/02 10:56:48;;;;;;;3.40;2.15;;;;;;;;;;5075186;28;20033;-84
2022/08/02 10:59:27;;;;;;;2.35;2.15;;;;;;;;;;5060723;28;20501;-86
2022/08/02 11:02:03;;;;;;;5.82;2.72;;;28.80;40.50;;;;;;5074985;28;20031;-83
2022/08/02 11:04:52;;;;;;;;;;;27.30;42.60;;;;;;5057482;28;20038;-84
2022/08/02 11:07:30;;;;;;;4.60;3.05;;;27.00;42.90;;;;;;5050998;28;19909;-85
2022/08/02 11:09:58;;;;;;;4.18;2.83;;;26.90;44.00;;;;;;5075262;28;20063;-86
2022/08/02 11:12:24;;;;;;;4.60;3.20;;;27.10;43.00;;;;;;5075190;28;20012;-86
2022/08/02 11:15:03;;;;;;;3.90;3.25;;;27.40;43.10;;;;;;5063867;28;20032;-86
2022/08/02 11:17:53;;;;;;;8.55;4.35;;;27.50;42.40;;;;;;5073772;28;20047;-86
2022/08/02 11:20:20;;;;;;;5.38;3.90;;;27.50;42.10;;;;;;5060104;28;20465;-86
2022/08/02 11:22:48;;;;;;;4.65;3.40;;;27.60;42.40;;;;;;5074233;28;20513;-85
2022/08/02 11:25:23;;;;;;;4.07;2.70;;;27.70;42.50;;;;;;5077047;28;20381;-86
2022/08/02 11:28:07;;;;;;;7.30;3.00;;;27.90;42.30;;;;;;5063291;28;20054;-86
2022/08/02 11:30:33;;;;;;;9.48;2.85;;;27.80;42.20;;;;;;5065704;28;20016;-87
2022/08/02 11:32:59;;;;;;;4.72;3.05;;;27.70;42.40;;;;;;5075005;28;20032;-86
2022/08/02 11:35:34;;;;;;;4.88;2.72;;;27.40;42.70;;;;;;5075496;28;20413;-86
2022/08/02 11:38:13;;;;;;;4.50;3.00;;;27.20;42.00;;;;;;5074599;28;20028;-86
2022/08/02 11:40:39;;;;;;;5.15;3.05;;;27.20;42.60;;;;;;5074860;28;20020;-87
2022/08/02 11:43:22;;;;;;;6.55;2.50;;;27.10;42.70;;;;;;5061495;28;20410;-86
2022/08/02 11:45:51;;;;;;;4.65;3.20;;;27.10;42.80;;;;;;5062110;28;20085;-85
2022/08/02 11:48:30;;;;;;;6.20;3.33;;;27.10;43.20;;;;;;5074897;28;20668;-85
2022/08/02 11:51:03;;;;;;;3.97;2.60;;;27.10;43.80;;;;;;5062282;28;20017;-86
2022/08/02 11:53:32;;;;;;;4.25;2.47;;;27.00;43.70;;;;;;5074353;28;20017;-85
2022/08/02 11:55:58;;;;;;;4.93;2.55;;;27.10;43.90;;;;;;5074111;28;20111;-86
2022/08/02 11:58:24;;;;;;;5.63;3.83;;;27.20;43.40;;;;;;5073945;28;20163;-86
2022/08/02 12:00:52;;;;;;;4.93;2.83;;;27.10;43.40;;;;;;5074776;28;20024;-86
2022/08/02 12:03:18;;;;;;;5.97;2.63;;;27.00;43.00;;;;;;5078480;28;20025;-85
2022/08/02 12:05:48;;;;;;;3.65;2.72;;;26.90;43.50;;;;;;5074217;28;20019;-86
2022/08/02 12:08:14;;;;;;;4.32;2.35;;;26.70;43.80;;;;;;5073531;28;20024;-86
2022/08/02 12:10:47;;;;;;;5.80;2.85;;;26.60;44.20;;;;;;5061789;28;20032;-87
2022/08/02 12:13:13;;;;;;;8.15;2.50;;;26.60;44.30;;;;;;5064803;28;20362;-85
2022/08/02 12:15:44;;;;;;;4.15;2.70;;;26.60;44.00;;;;;;5069054;28;20024;-84
2022/08/02 12:21:19;;;;;;;5.32;2.53;;;26.80;44.00;;;;;;5073437;28;20086;-84
2022/08/02 12:23:45;;;;;;;7.63;2.60;;;26.90;43.60;;;;;;5073174;28;20049;-87
2022/08/02 12:26:11;;;;;;;7.00;2.85;;;27.10;43.80;;;;;;5073264;28;20025;-87
2022/08/02 12:28:39;;;;;;;7.20;2.92;;;27.30;43.60;;;;;;5073022;28;20016;-86
2022/08/02 12:31:07;;;;;;;4.07;2.42;;;27.40;43.00;;;;;;5073169;28;20468;-86
2022/08/02 12:33:53;;;;;;;4.90;2.75;;;27.50;42.80;;;;;;5055168;28;20085;-85
2022/08/02 12:36:28;;;;;;;7.70;2.17;;;27.50;43.10;;;;;;5054559;28;20029;-88
2022/08/02 12:38:58;;;;;;;3.95;2.50;;;27.40;43.20;;;;;;5041306;28;20047;-85
2022/08/02 12:41:26;;;;;;;3.65;2.10;;;27.40;43.20;;;;;;5072944;28;20501;-87
2022/08/02 12:43:53;;;;;;;5.15;2.78;;;27.20;43.40;;;;;;5072888;28;20462;-85
2022/08/02 12:46:21;;;;;;;3.83;2.75;;;27.10;43.60;;;;;;5072387;28;20031;-84
2022/08/02 12:48:47;;;;;;;5.22;2.95;;;27.20;43.60;;;;;;5054778;28;20047;-85
2022/08/02 12:51:37;;;;;;;6.03;3.10;;;27.30;43.20;;;;;;5063120;28;20041;-85
2022/08/02 12:54:12;;;;;;;5.28;3.03;;;27.50;43.40;;;;;;5072879;28;20288;-85
2022/08/02 12:56:39;;;;;;;3.63;2.47;;;27.60;42.90;;;;;;5073128;28;20363;-85
2022/08/02 12:59:05;;;;;;;3.13;2.20;;;27.60;42.20;;;;;;5080475;28;20039;-86
2022/08/02 13:01:31;;;;;;;4.07;2.50;;;27.60;42.40;;;;;;5074423;28;20029;-85
2022/08/02 13:03:57;;;;;;;8.03;3.03;;;27.60;42.20;;;;;;5072775;28;20055;-86
2022/08/02 13:06:24;;;;;;;6.30;3.13;;;27.50;42.60;;;;;;5072442;28;20096;-86
2022/08/02 13:08:52;;;;;;;5.25;2.80;;;27.40;42.90;;;;;;5072509;28;20355;-87
2022/08/02 13:11:18;;;;;;;3.63;2.80;;;27.30;43.10;;;;;;5072800;28;20021;-85
2022/08/02 13:13:44;;;;;;;5.40;2.85;;;27.30;43.60;;;;;;5073266;28;20035;-85